sensor_id;sensor_type;location;lat;lon;timestamp;P1;durP1;ratioP1;P2;durP2;ratioP2
14121;SDS011;7139;48.114;11.442;2022-09-12T00:01:03;2.60;;;2.30;;
14121;SDS011;7139;48.114;11.442;2022-09-12T00:03:31;4.47;;;2.60;;
14121;SDS011;7139;48.114;11.442;2022-09-12T00:05:58;3.87;;;2.37;;
14121;SDS011;7139;48.114;11.442;2022-09-12T00:08:26;2.43;;;2.23;;
14121;SDS011;7139;48.114;11.442;2022-09-12T00:10:53;4.43;;;2.60;;
14121;SDS011;7139;48.114;11.442;2022-09-12T00:13:20;2.63;;;2.30;;
14121;SDS011;7139;48.114;11.442;2022-09-12T00:15:47;3.80;;;2.50;;
14121;SDS011;7139;48.114;11.442;2022-09-12T00:18:15;2.63;;;2.40;;
14121;SDS011;7139;48.114;11.442;2022-09-12T00:20:42;2.47;;;2.23;;
14121;SDS011;7139;48.114;11.442;2022-09-12T00:23:09;2.80;;;2.30;;
14121;SDS011;7139;48.114;11.442;2022-09-12T00:25:41;3.40;;;2.30;;
14121;SDS011;7139;48.114;11.442;2022-09-12T00:28:08;2.63;;;2.43;;
14121;SDS011;7139;48.114;11.442;2022-09-12T00:30:38;3.63;;;2.37;;
14121;SDS011;7139;48.114;11.442;2022-09-12T00:33:06;5.80;;;2.40;;
14121;SDS011;7139;48.114;11.442;2022-09-12T00:35:33;2.67;;;2.30;;
14121;SDS011;7139;48.114;11.442;2022-09-12T00:37:59;4.20;;;2.33;;
14121;SDS011;7139;48.114;11.442;2022-09-12T00:40:26;2.77;;;2.57;;
14121;SDS011;7139;48.114;11.442;2022-09-12T00:42:54;2.60;;;2.30;;
14121;SDS011;7139;48.114;11.442;2022-09-12T00:45:22;2.87;;;2.50;;
14121;SDS011;7139;48.114;11.442;2022-09-12T00:47:52;3.50;;;2.50;;
14121;SDS011;7139;48.114;11.442;2022-09-12T00:50:20;2.50;;;2.30;;
14121;SDS011;7139;48.114;11.442;2022-09-12T00:52:48;3.13;;;2.60;;
14121;SDS011;7139;48.114;11.442;2022-09-12T00:55:18;3.60;;;2.57;;
14121;SDS011;7139;48.114;11.442;2022-09-12T00:57:49;2.50;;;2.30;;
14121;SDS011;7139;48.114;11.442;2022-09-12T01:00:21;3.63;;;2.40;;
14121;SDS011;7139;48.114;11.442;2022-09-12T01:02:50;2.97;;;2.27;;
14121;SDS011;7139;48.114;11.442;2022-09-12T01:05:20;3.50;;;2.60;;
14121;SDS011;7139;48.114;11.442;2022-09-12T01:07:48;3.43;;;2.30;;
14121;SDS011;7139;48.114;11.442;2022-09-12T01:10:17;3.40;;;2.77;;
14121;SDS011;7139;48.114;11.442;2022-09-12T01:12:44;3.20;;;2.30;;
14121;SDS011;7139;48.114;11.442;2022-09-12T01:15:11;2.77;;;2.30;;
14121;SDS011;7139;48.114;11.442;2022-09-12T01:17:44;4.07;;;2.50;;
14121;SDS011;7139;48.114;11.442;2022-09-12T01:23:21;3.50;;;2.50;;
14121;SDS011;7139;48.114;11.442;2022-09-12T01:26:14;2.60;;;2.40;;
14121;SDS011;7139;48.114;11.442;2022-09-12T01:29:00;2.40;;;2.20;;
14121;SDS011;7139;48.114;11.442;2022-09-12T01:31:47;2.93;;;2.47;;
14121;SDS011;7139;48.114;11.442;2022-09-12T01:34:22;2.10;;;2.00;;
14121;SDS011;7139;48.114;11.442;2022-09-12T01:36:55;2.50;;;2.30;;
14121;SDS011;7139;48.114;11.442;2022-09-12T01:39:28;2.70;;;2.50;;
14121;SDS011;7139;48.114;11.442;2022-09-12T01:42:04;2.23;;;2.03;;
14121;SDS011;7139;48.114;11.442;2022-09-12T01:44:36;2.70;;;2.43;;
14121;SDS011;7139;48.114;11.442;2022-09-12T01:47:13;3.77;;;2.33;;
14121;SDS011;7139;48.114;11.442;2022-09-12T01:49:48;2.97;;;2.67;;
14121;SDS011;7139;48.114;11.442;2022-09-12T01:52:22;2.50;;;2.30;;
14121;SDS011;7139;48.114;11.442;2022-09-12T01:54:52;6.93;;;2.57;;
14121;SDS011;7139;48.114;11.442;2022-09-12T01:57:22;2.50;;;2.30;;
14121;SDS011;7139;48.114;11.442;2022-09-12T01:59:53;2.30;;;2.10;;
14121;SDS011;7139;48.114;11.442;2022-09-12T02:02:27;2.67;;;2.47;;
14121;SDS011;7139;48.114;11.442;2022-09-12T02:04:59;2.37;;;2.17;;
14121;SDS011;7139;48.114;11.442;2022-09-12T02:07:30;2.30;;;2.10;;
14121;SDS011;7139;48.114;11.442;2022-09-12T02:10:03;2.27;;;2.17;;
14121;SDS011;7139;48.114;11.442;2022-09-12T02:12:36;4.43;;;1.93;;
14121;SDS011;7139;48.114;11.442;2022-09-12T02:15:08;3.57;;;1.90;;
14121;SDS011;7139;48.114;11.442;2022-09-12T02:17:38;2.20;;;2.00;;
14121;SDS011;7139;48.114;11.442;2022-09-12T02:20:09;2.40;;;2.00;;
14121;SDS011;7139;48.114;11.442;2022-09-12T02:22:40;4.13;;;2.00;;
14121;SDS011;7139;48.114;11.442;2022-09-12T02:25:08;3.33;;;2.23;;
14121;SDS011;7139;48.114;11.442;2022-09-12T02:27:39;2.20;;;2.00;;
14121;SDS011;7139;48.114;11.442;2022-09-12T02:30:09;3.50;;;2.10;;
14121;SDS011;7139;48.114;11.442;2022-09-12T02:32:42;3.53;;;2.20;;
14121;SDS011;7139;48.114;11.442;2022-09-12T02:35:15;2.20;;;2.00;;
14121;SDS011;7139;48.114;11.442;2022-09-12T02:37:52;3.60;;;2.07;;
14121;SDS011;7139;48.114;11.442;2022-09-12T02:40:25;2.20;;;2.00;;
14121;SDS011;7139;48.114;11.442;2022-09-12T02:42:52;2.10;;;1.70;;
14121;SDS011;7139;48.114;11.442;2022-09-12T02:45:18;1.93;;;1.83;;
14121;SDS011;7139;48.114;11.442;2022-09-12T02:47:49;2.43;;;2.00;;
14121;SDS011;7139;48.114;11.442;2022-09-12T02:50:21;4.17;;;1.80;;
14121;SDS011;7139;48.114;11.442;2022-09-12T02:52:48;4.83;;;2.00;;
14121;SDS011;7139;48.114;11.442;2022-09-12T02:55:17;2.10;;;1.90;;
14121;SDS011;7139;48.114;11.442;2022-09-12T02:57:45;4.37;;;2.03;;
14121;SDS011;7139;48.114;11.442;2022-09-12T03:00:12;2.43;;;2.00;;
14121;SDS011;7139;48.114;11.442;2022-09-12T03:02:44;3.67;;;2.20;;
14121;SDS011;7139;48.114;11.442;2022-09-12T03:05:26;4.37;;;2.03;;
14121;SDS011;7139;48.114;11.442;2022-09-12T03:07:58;2.40;;;1.90;;
14121;SDS011;7139;48.114;11.442;2022-09-12T03:10:40;2.10;;;1.90;;
14121;SDS011;7139;48.114;11.442;2022-09-12T03:13:17;2.03;;;1.90;;
14121;SDS011;7139;48.114;11.442;2022-09-12T03:15:52;2.23;;;2.03;;
14121;SDS011;7139;48.114;11.442;2022-09-12T03:18:34;2.00;;;1.80;;
14121;SDS011;7139;48.114;11.442;2022-09-12T03:21:12;3.60;;;2.10;;
14121;SDS011;7139;48.114;11.442;2022-09-12T03:23:50;3.30;;;2.03;;
14121;SDS011;7139;48.114;11.442;2022-09-12T03:26:25;2.83;;;2.00;;
14121;SDS011;7139;48.114;11.442;2022-09-12T03:28:57;2.20;;;2.00;;
14121;SDS011;7139;48.114;11.442;2022-09-12T03:31:25;3.30;;;2.00;;
14121;SDS011;7139;48.114;11.442;2022-09-12T03:33:53;3.73;;;2.00;;
14121;SDS011;7139;48.114;11.442;2022-09-12T03:36:20;1.83;;;1.70;;
14121;SDS011;7139;48.114;11.442;2022-09-12T03:38:49;3.07;;;1.90;;
14121;SDS011;7139;48.114;11.442;2022-09-12T03:41:16;2.07;;;1.87;;
14121;SDS011;7139;48.114;11.442;2022-09-12T03:43:43;1.97;;;1.80;;
14121;SDS011;7139;48.114;11.442;2022-09-12T03:46:10;2.10;;;1.90;;
14121;SDS011;7139;48.114;11.442;2022-09-12T03:48:37;2.97;;;2.20;;
14121;SDS011;7139;48.114;11.442;2022-09-12T03:51:06;2.57;;;2.00;;
14121;SDS011;7139;48.114;11.442;2022-09-12T03:53:34;3.53;;;1.80;;
14121;SDS011;7139;48.114;11.442;2022-09-12T03:56:04;2.67;;;1.90;;
14121;SDS011;7139;48.114;11.442;2022-09-12T03:58:32;1.90;;;1.80;;
14121;SDS011;7139;48.114;11.442;2022-09-12T04:01:00;2.17;;;1.87;;
14121;SDS011;7139;48.114;11.442;2022-09-12T04:03:31;2.07;;;1.87;;
14121;SDS011;7139;48.114;11.442;2022-09-12T04:05:58;2.73;;;1.90;;
14121;SDS011;7139;48.114;11.442;2022-09-12T04:08:26;2.07;;;1.87;;
14121;SDS011;7139;48.114;11.442;2022-09-12T04:10:52;3.23;;;1.97;;
14121;SDS011;7139;48.114;11.442;2022-09-12T04:13:19;2.07;;;1.70;;
14121;SDS011;7139;48.114;11.442;2022-09-12T04:15:54;3.43;;;2.07;;
14121;SDS011;7139;48.114;11.442;2022-09-12T04:18:21;2.70;;;1.97;;
14121;SDS011;7139;48.114;11.442;2022-09-12T04:20:48;2.83;;;1.80;;
14121;SDS011;7139;48.114;11.442;2022-09-12T04:23:15;2.27;;;1.90;;
14121;SDS011;7139;48.114;11.442;2022-09-12T04:25:43;1.90;;;1.80;;
14121;SDS011;7139;48.114;11.442;2022-09-12T04:28:10;2.00;;;1.90;;
14121;SDS011;7139;48.114;11.442;2022-09-12T04:30:36;2.00;;;1.80;;
14121;SDS011;7139;48.114;11.442;2022-09-12T04:33:03;3.40;;;2.00;;
14121;SDS011;7139;48.114;11.442;2022-09-12T04:35:30;3.03;;;1.77;;
14121;SDS011;7139;48.114;11.442;2022-09-12T04:37:59;2.67;;;2.30;;
14121;SDS011;7139;48.114;11.442;2022-09-12T04:40:27;2.43;;;1.90;;
14121;SDS011;7139;48.114;11.442;2022-09-12T04:42:56;2.20;;;2.00;;
14121;SDS011;7139;48.114;11.442;2022-09-12T04:45:22;3.30;;;2.10;;
14121;SDS011;7139;48.114;11.442;2022-09-12T04:47:49;2.60;;;1.67;;
14121;SDS011;7139;48.114;11.442;2022-09-12T04:50:16;2.20;;;2.00;;
14121;SDS011;7139;48.114;11.442;2022-09-12T04:52:43;2.30;;;2.10;;
14121;SDS011;7139;48.114;11.442;2022-09-12T04:55:14;2.67;;;2.30;;
14121;SDS011;7139;48.114;11.442;2022-09-12T04:57:41;3.63;;;1.90;;
14121;SDS011;7139;48.114;11.442;2022-09-12T05:00:10;2.10;;;1.90;;
14121;SDS011;7139;48.114;11.442;2022-09-12T05:02:38;3.03;;;1.83;;
14121;SDS011;7139;48.114;11.442;2022-09-12T05:05:06;2.20;;;2.07;;
14121;SDS011;7139;48.114;11.442;2022-09-12T05:07:33;2.80;;;2.27;;
14121;SDS011;7139;48.114;11.442;2022-09-12T05:10:00;3.67;;;2.30;;
14121;SDS011;7139;48.114;11.442;2022-09-12T05:12:28;2.40;;;2.20;;
14121;SDS011;7139;48.114;11.442;2022-09-12T05:14:55;2.40;;;2.20;;
14121;SDS011;7139;48.114;11.442;2022-09-12T05:17:24;2.27;;;2.07;;
14121;SDS011;7139;48.114;11.442;2022-09-12T05:19:51;5.80;;;2.50;;
14121;SDS011;7139;48.114;11.442;2022-09-12T05:22:17;3.47;;;2.07;;
14121;SDS011;7139;48.114;11.442;2022-09-12T05:24:44;10.20;;;2.90;;
14121;SDS011;7139;48.114;11.442;2022-09-12T05:27:12;11.57;;;2.83;;
14121;SDS011;7139;48.114;11.442;2022-09-12T05:29:39;7.40;;;3.00;;
14121;SDS011;7139;48.114;11.442;2022-09-12T05:32:07;10.73;;;3.10;;
14121;SDS011;7139;48.114;11.442;2022-09-12T05:34:35;10.80;;;3.63;;
14121;SDS011;7139;48.114;11.442;2022-09-12T05:37:02;6.17;;;3.43;;
14121;SDS011;7139;48.114;11.442;2022-09-12T05:39:29;9.23;;;3.70;;
14121;SDS011;7139;48.114;11.442;2022-09-12T05:41:56;10.23;;;3.90;;
14121;SDS011;7139;48.114;11.442;2022-09-12T05:44:22;18.13;;;5.53;;
14121;SDS011;7139;48.114;11.442;2022-09-12T05:46:49;15.27;;;6.47;;
14121;SDS011;7139;48.114;11.442;2022-09-12T05:49:17;19.57;;;6.90;;
14121;SDS011;7139;48.114;11.442;2022-09-12T05:51:46;19.90;;;6.83;;
14121;SDS011;7139;48.114;11.442;2022-09-12T05:54:15;15.77;;;6.47;;
14121;SDS011;7139;48.114;11.442;2022-09-12T05:56:44;15.87;;;7.17;;
14121;SDS011;7139;48.114;11.442;2022-09-12T05:59:12;11.80;;;5.67;;
14121;SDS011;7139;48.114;11.442;2022-09-12T06:01:41;11.50;;;5.27;;
14121;SDS011;7139;48.114;11.442;2022-09-12T06:04:08;9.83;;;4.83;;
14121;SDS011;7139;48.114;11.442;2022-09-12T06:06:36;8.73;;;4.23;;
14121;SDS011;7139;48.114;11.442;2022-09-12T06:09:07;7.30;;;3.50;;
14121;SDS011;7139;48.114;11.442;2022-09-12T06:11:34;5.30;;;3.23;;
14121;SDS011;7139;48.114;11.442;2022-09-12T06:14:05;6.63;;;3.77;;
14121;SDS011;7139;48.114;11.442;2022-09-12T06:16:33;6.63;;;3.17;;
14121;SDS011;7139;48.114;11.442;2022-09-12T06:19:02;4.67;;;3.40;;
14121;SDS011;7139;48.114;11.442;2022-09-12T06:21:30;4.93;;;3.13;;
14121;SDS011;7139;48.114;11.442;2022-09-12T06:23:59;5.47;;;2.70;;
14121;SDS011;7139;48.114;11.442;2022-09-12T06:26:27;4.93;;;2.97;;
14121;SDS011;7139;48.114;11.442;2022-09-12T06:28:55;3.53;;;2.70;;
14121;SDS011;7139;48.114;11.442;2022-09-12T06:31:25;3.73;;;2.70;;
14121;SDS011;7139;48.114;11.442;2022-09-12T06:33:53;3.07;;;2.60;;
14121;SDS011;7139;48.114;11.442;2022-09-12T06:36:21;3.03;;;2.83;;
14121;SDS011;7139;48.114;11.442;2022-09-12T06:38:52;4.20;;;2.67;;
14121;SDS011;7139;48.114;11.442;2022-09-12T06:41:20;2.73;;;2.53;;
14121;SDS011;7139;48.114;11.442;2022-09-12T06:43:48;3.87;;;2.67;;
14121;SDS011;7139;48.114;11.442;2022-09-12T06:46:16;3.10;;;2.80;;
14121;SDS011;7139;48.114;11.442;2022-09-12T06:48:43;5.00;;;3.10;;
14121;SDS011;7139;48.114;11.442;2022-09-12T06:51:10;3.77;;;3.00;;
14121;SDS011;7139;48.114;11.442;2022-09-12T06:53:38;2.73;;;2.43;;
14121;SDS011;7139;48.114;11.442;2022-09-12T06:56:06;5.57;;;3.10;;
14121;SDS011;7139;48.114;11.442;2022-09-12T06:58:35;4.77;;;2.70;;
14121;SDS011;7139;48.114;11.442;2022-09-12T07:01:04;4.33;;;2.73;;
14121;SDS011;7139;48.114;11.442;2022-09-12T07:03:32;4.20;;;2.53;;
14121;SDS011;7139;48.114;11.442;2022-09-12T07:06:01;2.67;;;2.30;;
14121;SDS011;7139;48.114;11.442;2022-09-12T07:08:28;3.70;;;2.60;;
14121;SDS011;7139;48.114;11.442;2022-09-12T07:10:56;2.63;;;2.37;;
14121;SDS011;7139;48.114;11.442;2022-09-12T07:13:25;3.97;;;2.47;;
14121;SDS011;7139;48.114;11.442;2022-09-12T07:15:51;3.57;;;2.43;;
14121;SDS011;7139;48.114;11.442;2022-09-12T07:18:20;2.73;;;2.50;;
14121;SDS011;7139;48.114;11.442;2022-09-12T07:20:47;4.83;;;2.47;;
14121;SDS011;7139;48.114;11.442;2022-09-12T07:23:14;3.53;;;2.30;;
14121;SDS011;7139;48.114;11.442;2022-09-12T07:25:41;6.40;;;2.60;;
14121;SDS011;7139;48.114;11.442;2022-09-12T07:28:08;3.03;;;2.37;;
14121;SDS011;7139;48.114;11.442;2022-09-12T07:30:35;3.00;;;2.50;;
14121;SDS011;7139;48.114;11.442;2022-09-12T07:33:03;3.73;;;2.50;;
14121;SDS011;7139;48.114;11.442;2022-09-12T07:35:32;2.73;;;2.20;;
14121;SDS011;7139;48.114;11.442;2022-09-12T07:37:59;2.80;;;2.40;;
14121;SDS011;7139;48.114;11.442;2022-09-12T07:40:26;2.87;;;2.40;;
14121;SDS011;7139;48.114;11.442;2022-09-12T07:42:53;2.87;;;2.10;;
14121;SDS011;7139;48.114;11.442;2022-09-12T07:45:20;3.20;;;2.37;;
14121;SDS011;7139;48.114;11.442;2022-09-12T07:47:46;2.93;;;2.30;;
14121;SDS011;7139;48.114;11.442;2022-09-12T07:50:13;2.97;;;2.33;;
14121;SDS011;7139;48.114;11.442;2022-09-12T07:52:41;2.90;;;2.30;;
14121;SDS011;7139;48.114;11.442;2022-09-12T07:55:08;3.40;;;2.40;;
14121;SDS011;7139;48.114;11.442;2022-09-12T07:57:35;2.90;;;2.30;;
14121;SDS011;7139;48.114;11.442;2022-09-12T08:00:02;2.50;;;2.30;;
14121;SDS011;7139;48.114;11.442;2022-09-12T08:02:30;2.80;;;2.50;;
14121;SDS011;7139;48.114;11.442;2022-09-12T08:04:57;3.20;;;2.30;;
14121;SDS011;7139;48.114;11.442;2022-09-12T08:07:23;2.50;;;2.30;;
14121;SDS011;7139;48.114;11.442;2022-09-12T08:09:52;2.80;;;2.60;;
14121;SDS011;7139;48.114;11.442;2022-09-12T08:12:18;3.10;;;2.80;;
14121;SDS011;7139;48.114;11.442;2022-09-12T08:14:45;2.70;;;2.50;;
14121;SDS011;7139;48.114;11.442;2022-09-12T08:17:12;3.37;;;2.90;;
14121;SDS011;7139;48.114;11.442;2022-09-12T08:19:39;4.90;;;3.23;;
14121;SDS011;7139;48.114;11.442;2022-09-12T08:22:06;3.67;;;2.90;;
14121;SDS011;7139;48.114;11.442;2022-09-12T08:24:32;4.43;;;2.63;;
14121;SDS011;7139;48.114;11.442;2022-09-12T08:27:00;3.27;;;2.60;;
14121;SDS011;7139;48.114;11.442;2022-09-12T08:29:27;4.87;;;2.80;;
14121;SDS011;7139;48.114;11.442;2022-09-12T08:31:54;4.57;;;2.80;;
14121;SDS011;7139;48.114;11.442;2022-09-12T08:34:21;5.30;;;2.60;;
14121;SDS011;7139;48.114;11.442;2022-09-12T08:36:48;4.43;;;2.77;;
14121;SDS011;7139;48.114;11.442;2022-09-12T08:39:18;5.60;;;2.80;;
14121;SDS011;7139;48.114;11.442;2022-09-12T08:41:46;3.67;;;2.80;;
14121;SDS011;7139;48.114;11.442;2022-09-12T08:44:24;4.67;;;2.63;;
14121;SDS011;7139;48.114;11.442;2022-09-12T08:49:47;6.77;;;2.90;;
14121;SDS011;7139;48.114;11.442;2022-09-12T08:52:21;3.10;;;2.80;;
14121;SDS011;7139;48.114;11.442;2022-09-12T08:54:52;5.87;;;2.70;;
14121;SDS011;7139;48.114;11.442;2022-09-12T08:57:20;3.30;;;2.73;;
14121;SDS011;7139;48.114;11.442;2022-09-12T08:59:49;3.00;;;2.80;;
14121;SDS011;7139;48.114;11.442;2022-09-12T09:02:22;3.47;;;2.60;;
14121;SDS011;7139;48.114;11.442;2022-09-12T09:05:04;4.53;;;2.60;;
14121;SDS011;7139;48.114;11.442;2022-09-12T09:07:45;2.60;;;2.40;;
14121;SDS011;7139;48.114;11.442;2022-09-12T09:10:30;2.93;;;2.30;;
14121;SDS011;7139;48.114;11.442;2022-09-12T09:13:06;3.60;;;2.13;;
14121;SDS011;7139;48.114;11.442;2022-09-12T09:16:03;3.57;;;2.37;;
14121;SDS011;7139;48.114;11.442;2022-09-12T09:18:40;4.43;;;2.67;;
14121;SDS011;7139;48.114;11.442;2022-09-12T09:21:11;2.77;;;2.57;;
14121;SDS011;7139;48.114;11.442;2022-09-12T09:23:47;2.77;;;2.50;;
14121;SDS011;7139;48.114;11.442;2022-09-12T09:26:19;3.23;;;2.40;;
14121;SDS011;7139;48.114;11.442;2022-09-12T09:28:51;3.20;;;2.50;;
14121;SDS011;7139;48.114;11.442;2022-09-12T09:31:21;4.80;;;2.73;;
14121;SDS011;7139;48.114;11.442;2022-09-12T09:33:50;2.83;;;2.30;;
14121;SDS011;7139;48.114;11.442;2022-09-12T09:36:19;2.70;;;2.10;;
14121;SDS011;7139;48.114;11.442;2022-09-12T09:38:48;2.60;;;2.30;;
14121;SDS011;7139;48.114;11.442;2022-09-12T09:41:25;3.40;;;2.40;;
14121;SDS011;7139;48.114;11.442;2022-09-12T09:44:02;3.03;;;1.90;;
14121;SDS011;7139;48.114;11.442;2022-09-12T09:46:31;2.10;;;1.90;;
14121;SDS011;7139;48.114;11.442;2022-09-12T09:48:58;2.80;;;2.13;;
14121;SDS011;7139;48.114;11.442;2022-09-12T09:51:27;3.10;;;1.90;;
14121;SDS011;7139;48.114;11.442;2022-09-12T09:53:59;3.60;;;2.10;;
14121;SDS011;7139;48.114;11.442;2022-09-12T09:56:29;2.53;;;1.87;;
14121;SDS011;7139;48.114;11.442;2022-09-12T09:59:07;2.27;;;2.07;;
14121;SDS011;7139;48.114;11.442;2022-09-12T10:01:36;1.97;;;1.83;;
14121;SDS011;7139;48.114;11.442;2022-09-12T10:04:13;2.90;;;1.87;;
14121;SDS011;7139;48.114;11.442;2022-09-12T10:06:44;2.10;;;1.70;;
14121;SDS011;7139;48.114;11.442;2022-09-12T10:09:18;2.17;;;1.87;;
14121;SDS011;7139;48.114;11.442;2022-09-12T10:11:47;2.00;;;1.90;;
14121;SDS011;7139;48.114;11.442;2022-09-12T10:14:31;3.07;;;2.10;;
14121;SDS011;7139;48.114;11.442;2022-09-12T10:19:52;3.07;;;2.30;;
14121;SDS011;7139;48.114;11.442;2022-09-12T10:22:20;5.70;;;2.55;;
14121;SDS011;7139;48.114;11.442;2022-09-12T10:24:49;7.63;;;2.53;;
14121;SDS011;7139;48.114;11.442;2022-09-12T10:27:18;5.63;;;2.70;;
14121;SDS011;7139;48.114;11.442;2022-09-12T10:29:48;5.28;;;2.50;;
14121;SDS011;7139;48.114;11.442;2022-09-12T10:32:20;5.37;;;2.30;;
14121;SDS011;7139;48.114;11.442;2022-09-12T10:34:51;33.87;;;5.20;;
14121;SDS011;7139;48.114;11.442;2022-09-12T10:37:22;30.50;;;6.07;;
14121;SDS011;7139;48.114;11.442;2022-09-12T10:40:00;13.00;;;3.33;;
14121;SDS011;7139;48.114;11.442;2022-09-12T10:42:43;8.95;;;2.80;;
14121;SDS011;7139;48.114;11.442;2022-09-12T10:45:18;3.88;;;3.53;;
14121;SDS011;7139;48.114;11.442;2022-09-12T10:47:48;4.22;;;2.53;;
14121;SDS011;7139;48.114;11.442;2022-09-12T10:50:20;3.25;;;2.08;;
14121;SDS011;7139;48.114;11.442;2022-09-12T10:52:50;1.92;;;1.83;;
14121;SDS011;7139;48.114;11.442;2022-09-12T10:55:17;2.10;;;1.90;;
14121;SDS011;7139;48.114;11.442;2022-09-12T10:57:53;3.03;;;1.70;;
14121;SDS011;7139;48.114;11.442;2022-09-12T11:00:35;2.85;;;2.33;;
14121;SDS011;7139;48.114;11.442;2022-09-12T11:03:13;2.67;;;1.90;;
14121;SDS011;7139;48.114;11.442;2022-09-12T11:05:51;2.30;;;1.90;;
14121;SDS011;7139;48.114;11.442;2022-09-12T11:08:34;2.58;;;2.03;;
14121;SDS011;7139;48.114;11.442;2022-09-12T11:14:19;3.42;;;2.10;;
14121;SDS011;7139;48.114;11.442;2022-09-12T11:16:58;2.58;;;2.10;;
14121;SDS011;7139;48.114;11.442;2022-09-12T11:19:54;3.40;;;2.10;;
14121;SDS011;7139;48.114;11.442;2022-09-12T11:22:37;3.10;;;2.08;;
14121;SDS011;7139;48.114;11.442;2022-09-12T11:25:24;5.47;;;2.20;;
14121;SDS011;7139;48.114;11.442;2022-09-12T11:31:03;2.70;;;2.50;;
14121;SDS011;7139;48.114;11.442;2022-09-12T11:34:04;3.58;;;2.33;;
14121;SDS011;7139;48.114;11.442;2022-09-12T11:36:36;2.35;;;1.90;;
14121;SDS011;7139;48.114;11.442;2022-09-12T11:39:11;3.05;;;2.40;;
14121;SDS011;7139;48.114;11.442;2022-09-12T11:41:40;4.13;;;2.10;;
14121;SDS011;7139;48.114;11.442;2022-09-12T11:44:13;2.30;;;2.00;;
14121;SDS011;7139;48.114;11.442;2022-09-12T11:46:44;2.17;;;2.00;;
14121;SDS011;7139;48.114;11.442;2022-09-12T11:49:16;2.20;;;2.00;;
14121;SDS011;7139;48.114;11.442;2022-09-12T11:51:51;2.60;;;2.40;;
14121;SDS011;7139;48.114;11.442;2022-09-12T11:54:22;1.90;;;1.80;;
14121;SDS011;7139;48.114;11.442;2022-09-12T11:56:56;2.38;;;2.17;;
14121;SDS011;7139;48.114;11.442;2022-09-12T11:59:31;2.40;;;2.20;;
14121;SDS011;7139;48.114;11.442;2022-09-12T12:02:04;2.60;;;2.38;;
14121;SDS011;7139;48.114;11.442;2022-09-12T12:04:39;2.78;;;2.55;;
14121;SDS011;7139;48.114;11.442;2022-09-12T12:07:11;2.55;;;2.20;;
14121;SDS011;7139;48.114;11.442;2022-09-12T12:09:43;2.17;;;2.05;;
14121;SDS011;7139;48.114;11.442;2022-09-12T12:12:14;2.25;;;2.10;;
14121;SDS011;7139;48.114;11.442;2022-09-12T12:14:45;2.15;;;1.95;;
14121;SDS011;7139;48.114;11.442;2022-09-12T12:17:15;2.30;;;2.10;;
14121;SDS011;7139;48.114;11.442;2022-09-12T12:19:43;2.30;;;2.10;;
14121;SDS011;7139;48.114;11.442;2022-09-12T12:22:17;2.25;;;2.05;;
14121;SDS011;7139;48.114;11.442;2022-09-12T12:25:02;2.05;;;1.95;;
14121;SDS011;7139;48.114;11.442;2022-09-12T12:27:45;3.03;;;2.05;;
14121;SDS011;7139;48.114;11.442;2022-09-12T12:36:29;3.38;;;2.17;;
14121;SDS011;7139;48.114;11.442;2022-09-12T12:39:00;3.75;;;2.33;;
14121;SDS011;7139;48.114;11.442;2022-09-12T12:48:23;2.75;;;2.50;;
14121;SDS011;7139;48.114;11.442;2022-09-12T12:50:50;2.60;;;2.40;;
14121;SDS011;7139;48.114;11.442;2022-09-12T12:53:17;4.07;;;2.72;;
14121;SDS011;7139;48.114;11.442;2022-09-12T12:55:48;3.35;;;2.30;;
14121;SDS011;7139;48.114;11.442;2022-09-12T12:58:26;2.97;;;2.10;;
14121;SDS011;7139;48.114;11.442;2022-09-12T13:01:06;4.65;;;2.53;;
14121;SDS011;7139;48.114;11.442;2022-09-12T13:03:38;2.53;;;2.20;;
14121;SDS011;7139;48.114;11.442;2022-09-12T13:06:08;2.28;;;2.17;;
14121;SDS011;7139;48.114;11.442;2022-09-12T13:08:54;2.50;;;2.30;;
14121;SDS011;7139;48.114;11.442;2022-09-12T13:11:28;2.67;;;2.35;;
14121;SDS011;7139;48.114;11.442;2022-09-12T13:13:59;2.47;;;2.28;;
14121;SDS011;7139;48.114;11.442;2022-09-12T13:16:35;3.17;;;2.20;;
14121;SDS011;7139;48.114;11.442;2022-09-12T13:19:03;5.38;;;2.13;;
14121;SDS011;7139;48.114;11.442;2022-09-12T13:21:32;6.85;;;2.10;;
14121;SDS011;7139;48.114;11.442;2022-09-12T13:24:00;4.50;;;2.10;;
14121;SDS011;7139;48.114;11.442;2022-09-12T13:26:32;2.90;;;2.00;;
14121;SDS011;7139;48.114;11.442;2022-09-12T13:29:09;2.00;;;1.90;;
14121;SDS011;7139;48.114;11.442;2022-09-12T13:31:38;2.53;;;2.00;;
14121;SDS011;7139;48.114;11.442;2022-09-12T13:34:06;4.30;;;1.90;;
14121;SDS011;7139;48.114;11.442;2022-09-12T13:36:37;3.08;;;2.00;;
14121;SDS011;7139;48.114;11.442;2022-09-12T13:39:19;3.42;;;1.80;;
14121;SDS011;7139;48.114;11.442;2022-09-12T13:41:51;2.47;;;1.85;;
14121;SDS011;7139;48.114;11.442;2022-09-12T13:44:41;3.05;;;2.10;;
14121;SDS011;7139;48.114;11.442;2022-09-12T13:47:13;3.70;;;2.00;;
14121;SDS011;7139;48.114;11.442;2022-09-12T13:49:50;2.45;;;2.15;;
14121;SDS011;7139;48.114;11.442;2022-09-12T13:52:18;2.50;;;2.30;;
14121;SDS011;7139;48.114;11.442;2022-09-12T13:54:47;2.35;;;2.05;;
14121;SDS011;7139;48.114;11.442;2022-09-12T13:57:28;6.63;;;2.65;;
14121;SDS011;7139;48.114;11.442;2022-09-12T13:59:58;7.78;;;2.50;;
14121;SDS011;7139;48.114;11.442;2022-09-12T14:02:33;2.83;;;2.10;;
14121;SDS011;7139;48.114;11.442;2022-09-12T14:05:10;2.70;;;2.13;;
14121;SDS011;7139;48.114;11.442;2022-09-12T14:07:38;3.08;;;2.28;;
14121;SDS011;7139;48.114;11.442;2022-09-12T14:10:16;2.35;;;2.10;;
14121;SDS011;7139;48.114;11.442;2022-09-12T14:12:48;2.13;;;2.00;;
14121;SDS011;7139;48.114;11.442;2022-09-12T14:15:16;2.40;;;2.20;;
14121;SDS011;7139;48.114;11.442;2022-09-12T14:17:49;2.72;;;2.30;;
14121;SDS011;7139;48.114;11.442;2022-09-12T14:20:17;2.72;;;1.90;;
14121;SDS011;7139;48.114;11.442;2022-09-12T14:22:47;2.85;;;1.80;;
14121;SDS011;7139;48.114;11.442;2022-09-12T14:25:15;2.33;;;1.98;;
14121;SDS011;7139;48.114;11.442;2022-09-12T14:27:44;6.45;;;2.30;;
14121;SDS011;7139;48.114;11.442;2022-09-12T14:30:19;4.15;;;2.30;;
14121;SDS011;7139;48.114;11.442;2022-09-12T14:33:02;3.85;;;2.25;;
14121;SDS011;7139;48.114;11.442;2022-09-12T14:35:46;2.40;;;2.20;;
14121;SDS011;7139;48.114;11.442;2022-09-12T14:38:18;1.98;;;1.88;;
14121;SDS011;7139;48.114;11.442;2022-09-12T14:40:49;1.90;;;1.80;;
14121;SDS011;7139;48.114;11.442;2022-09-12T14:43:24;1.83;;;1.73;;
14121;SDS011;7139;48.114;11.442;2022-09-12T14:45:54;5.43;;;2.08;;
14121;SDS011;7139;48.114;11.442;2022-09-12T14:48:24;5.03;;;2.03;;
14121;SDS011;7139;48.114;11.442;2022-09-12T14:50:53;2.30;;;2.03;;
14121;SDS011;7139;48.114;11.442;2022-09-12T14:53:22;2.92;;;2.20;;
14121;SDS011;7139;48.114;11.442;2022-09-12T14:55:52;2.92;;;2.00;;
14121;SDS011;7139;48.114;11.442;2022-09-12T14:58:24;7.50;;;2.50;;
14121;SDS011;7139;48.114;11.442;2022-09-12T15:00:54;2.50;;;2.10;;
14121;SDS011;7139;48.114;11.442;2022-09-12T15:03:25;20.92;;;4.22;;
14121;SDS011;7139;48.114;11.442;2022-09-12T15:05:54;25.35;;;4.03;;
14121;SDS011;7139;48.114;11.442;2022-09-12T15:08:21;7.00;;;2.17;;
14121;SDS011;7139;48.114;11.442;2022-09-12T15:10:48;6.13;;;2.30;;
14121;SDS011;7139;48.114;11.442;2022-09-12T15:13:17;44.40;;;6.10;;
14121;SDS011;7139;48.114;11.442;2022-09-12T15:15:46;11.02;;;3.17;;
14121;SDS011;7139;48.114;11.442;2022-09-12T15:18:15;7.25;;;2.17;;
14121;SDS011;7139;48.114;11.442;2022-09-12T15:20:46;25.95;;;4.30;;
14121;SDS011;7139;48.114;11.442;2022-09-12T15:23:17;23.02;;;4.35;;
14121;SDS011;7139;48.114;11.442;2022-09-12T15:25:46;5.88;;;2.50;;
14121;SDS011;7139;48.114;11.442;2022-09-12T15:28:15;3.55;;;2.22;;
14121;SDS011;7139;48.114;11.442;2022-09-12T15:30:45;2.10;;;1.80;;
14121;SDS011;7139;48.114;11.442;2022-09-12T15:33:14;3.03;;;2.00;;
14121;SDS011;7139;48.114;11.442;2022-09-12T15:35:41;10.57;;;2.30;;
14121;SDS011;7139;48.114;11.442;2022-09-12T15:38:09;4.15;;;2.15;;